AAL122 KMEM-KDFW
Flight info
| Callsign | AAL122 |
|---|---|
| Flight time | N/A |
| Altitude | 38000 |
| Route | CHLDR5 ANSWA FEWWW BRDJE5 |
| Aircraft | A319/M-SDE3FGHIRWY/LB1 |
Departure
| Time | N/A |
|---|---|
| Airport | Memphis International Airport (KMEM) |
Arrival
| Time | 2026-05-06 03:10 |
|---|---|
| Airport | Dallas Fort Worth International Airport (KDFW) |
| Time | Latitude | Longitude | Altitude | Speed | Heading |
|---|---|---|---|---|---|
| 2026-05-06 02:35 | 34.06524 | -95.99281 | 25348 ft | 347 kts | 211° |
| 2026-05-06 02:35 | 34.04264 | -96.00260 | 24568 ft | 342 kts | 211° |
| 2026-05-06 02:36 | 34.02033 | -96.01228 | 23764 ft | 339 kts | 211° |
| 2026-05-06 02:36 | 33.99840 | -96.02183 | 22908 ft | 336 kts | 211° |
| 2026-05-06 02:36 | 33.97648 | -96.03141 | 22082 ft | 332 kts | 210° |
| 2026-05-06 02:36 | 33.95473 | -96.04092 | 21234 ft | 328 kts | 210° |
| 2026-05-06 02:37 | 33.93345 | -96.05022 | 20446 ft | 323 kts | 210° |
| 2026-05-06 02:37 | 33.91264 | -96.05933 | 19694 ft | 320 kts | 209° |
| 2026-05-06 02:37 | 33.89165 | -96.06849 | 19326 ft | 317 kts | 209° |
| 2026-05-06 02:37 | 33.87096 | -96.07752 | 19071 ft | 315 kts | 209° |
| 2026-05-06 02:38 | 33.85053 | -96.08633 | 18946 ft | 315 kts | 209° |
| 2026-05-06 02:38 | 33.82996 | -96.09514 | 18896 ft | 316 kts | 208° |
| 2026-05-06 02:38 | 33.80890 | -96.10417 | 18874 ft | 321 kts | 208° |
| 2026-05-06 02:38 | 33.78793 | -96.11310 | 18839 ft | 316 kts | 208° |
| 2026-05-06 02:39 | 33.76722 | -96.12185 | 18843 ft | 317 kts | 208° |
| 2026-05-06 02:39 | 33.74635 | -96.13070 | 18814 ft | 319 kts | 208° |
| 2026-05-06 02:39 | 33.72541 | -96.13957 | 18813 ft | 317 kts | 208° |
| 2026-05-06 02:39 | 33.70463 | -96.14836 | 18815 ft | 317 kts | 208° |
| 2026-05-06 02:40 | 33.68381 | -96.15719 | 18819 ft | 318 kts | 208° |
| 2026-05-06 02:40 | 33.66281 | -96.16609 | 18818 ft | 318 kts | 208° |
| 2026-05-06 02:40 | 33.64203 | -96.17490 | 18819 ft | 317 kts | 208° |
| 2026-05-06 02:40 | 33.62120 | -96.18373 | 18810 ft | 318 kts | 208° |
| 2026-05-06 02:41 | 33.60058 | -96.19248 | 18810 ft | 319 kts | 208° |
| 2026-05-06 02:41 | 33.57968 | -96.20134 | 18809 ft | 318 kts | 208° |
| 2026-05-06 02:41 | 33.55844 | -96.21034 | 18812 ft | 317 kts | 208° |
| 2026-05-06 02:41 | 33.53765 | -96.21914 | 18797 ft | 318 kts | 208° |
| 2026-05-06 02:42 | 33.51720 | -96.22782 | 18443 ft | 314 kts | 208° |
| 2026-05-06 02:42 | 33.49679 | -96.23647 | 17672 ft | 311 kts | 208° |
| 2026-05-06 02:42 | 33.47701 | -96.24621 | 16797 ft | 302 kts | 216° |
| 2026-05-06 02:42 | 33.45937 | -96.25965 | 15961 ft | 296 kts | 221° |
| 2026-05-06 02:43 | 33.44311 | -96.27479 | 15425 ft | 298 kts | 225° |
| 2026-05-06 02:43 | 33.42766 | -96.29108 | 15101 ft | 293 kts | 227° |
| 2026-05-06 02:43 | 33.41303 | -96.30792 | 14939 ft | 290 kts | 229° |
| 2026-05-06 02:43 | 33.39895 | -96.32519 | 14870 ft | 291 kts | 230° |
| 2026-05-06 02:44 | 33.38528 | -96.34276 | 14842 ft | 291 kts | 231° |
| 2026-05-06 02:44 | 33.37161 | -96.36091 | 14822 ft | 290 kts | 232° |
| 2026-05-06 02:44 | 33.35827 | -96.37901 | 14811 ft | 290 kts | 232° |
| 2026-05-06 02:44 | 33.34501 | -96.39726 | 14816 ft | 291 kts | 232° |
| 2026-05-06 02:45 | 33.33178 | -96.41563 | 14813 ft | 291 kts | 232° |
| 2026-05-06 02:45 | 33.31884 | -96.43368 | 14811 ft | 290 kts | 232° |
| 2026-05-06 02:45 | 33.30574 | -96.45201 | 14807 ft | 290 kts | 233° |
| 2026-05-06 02:45 | 33.29258 | -96.47041 | 14819 ft | 290 kts | 232° |
| 2026-05-06 02:46 | 33.27939 | -96.48852 | 14773 ft | 289 kts | 232° |
| 2026-05-06 02:46 | 33.26619 | -96.50644 | 14261 ft | 286 kts | 232° |
| 2026-05-06 02:46 | 33.25300 | -96.52421 | 13493 ft | 285 kts | 231° |
| 2026-05-06 02:46 | 33.23976 | -96.54185 | 12662 ft | 286 kts | 231° |
| 2026-05-06 02:47 | 33.22650 | -96.55942 | 12274 ft | 287 kts | 231° |
| 2026-05-06 02:47 | 33.21306 | -96.57712 | 12017 ft | 283 kts | 231° |
| 2026-05-06 02:47 | 33.19989 | -96.59448 | 11915 ft | 284 kts | 231° |
| 2026-05-06 02:47 | 33.18680 | -96.61193 | 11717 ft | 282 kts | 231° |
| 2026-05-06 02:48 | 33.17368 | -96.62960 | 10997 ft | 282 kts | 232° |
| 2026-05-06 02:48 | 33.16102 | -96.64675 | 10634 ft | 268 kts | 232° |
| 2026-05-06 02:48 | 33.14911 | -96.66291 | 10336 ft | 255 kts | 232° |
| 2026-05-06 02:48 | 33.13762 | -96.67853 | 9923 ft | 248 kts | 232° |
| 2026-05-06 02:49 | 33.12626 | -96.69410 | 9323 ft | 248 kts | 232° |
| 2026-05-06 02:49 | 33.11499 | -96.70973 | 8718 ft | 249 kts | 232° |
| 2026-05-06 02:49 | 33.10367 | -96.72544 | 8130 ft | 249 kts | 231° |
| 2026-05-06 02:49 | 33.09235 | -96.74111 | 7543 ft | 250 kts | 231° |
| 2026-05-06 02:50 | 33.08079 | -96.75703 | 7168 ft | 256 kts | 230° |
| 2026-05-06 02:50 | 33.06919 | -96.77288 | 6971 ft | 250 kts | 230° |
| 2026-05-06 02:50 | 33.05767 | -96.78851 | 6889 ft | 251 kts | 230° |
| 2026-05-06 02:50 | 33.04615 | -96.80402 | 6875 ft | 251 kts | 229° |
| 2026-05-06 02:51 | 33.03447 | -96.81976 | 6860 ft | 253 kts | 229° |
| 2026-05-06 02:51 | 33.02281 | -96.83548 | 6515 ft | 256 kts | 229° |
| 2026-05-06 02:51 | 33.01108 | -96.85139 | 6191 ft | 251 kts | 229° |
| 2026-05-06 02:51 | 32.99972 | -96.86690 | 5844 ft | 250 kts | 228° |
| 2026-05-06 02:52 | 32.98813 | -96.88216 | 5314 ft | 249 kts | 220° |
| 2026-05-06 02:52 | 32.97315 | -96.89226 | 4761 ft | 248 kts | 199° |
| 2026-05-06 02:52 | 32.95667 | -96.89820 | 4242 ft | 246 kts | 193° |
| 2026-05-06 02:52 | 32.93994 | -96.90233 | 3725 ft | 245 kts | 189° |
| 2026-05-06 02:53 | 32.92269 | -96.90539 | 3251 ft | 255 kts | 185° |
| 2026-05-06 02:53 | 32.90478 | -96.90768 | 2988 ft | 256 kts | 184° |
| 2026-05-06 02:53 | 32.88706 | -96.90938 | 2880 ft | 259 kts | 182° |
| 2026-05-06 02:53 | 32.86881 | -96.91074 | 2840 ft | 261 kts | 181° |
| 2026-05-06 02:54 | 32.85111 | -96.91196 | 2810 ft | 258 kts | 182° |
| 2026-05-06 02:54 | 32.83296 | -96.91316 | 2817 ft | 260 kts | 182° |
| 2026-05-06 02:54 | 32.81478 | -96.91427 | 2813 ft | 260 kts | 180° |
| 2026-05-06 02:54 | 32.79665 | -96.91495 | 2802 ft | 260 kts | 180° |
| 2026-05-06 02:55 | 32.77864 | -96.91524 | 2801 ft | 260 kts | 179° |
| 2026-05-06 02:55 | 32.76046 | -96.91548 | 2787 ft | 260 kts | 178° |
| 2026-05-06 02:55 | 32.74235 | -96.91560 | 2798 ft | 259 kts | 178° |
| 2026-05-06 02:55 | 32.72426 | -96.91565 | 2804 ft | 257 kts | 178° |
| 2026-05-06 02:56 | 32.70613 | -96.91571 | 2811 ft | 262 kts | 179° |
| 2026-05-06 02:56 | 32.68812 | -96.91570 | 2798 ft | 250 kts | 179° |
| 2026-05-06 02:56 | 32.67094 | -96.91558 | 2801 ft | 251 kts | 179° |
| 2026-05-06 02:56 | 32.65343 | -96.91552 | 2789 ft | 252 kts | 179° |
| 2026-05-06 02:57 | 32.63603 | -96.91555 | 2794 ft | 248 kts | 179° |
| 2026-05-06 02:57 | 32.61946 | -96.91559 | 2805 ft | 225 kts | 180° |
| 2026-05-06 02:57 | 32.60482 | -96.91811 | 2770 ft | 211 kts | 202° |
| 2026-05-06 02:57 | 32.59484 | -96.92916 | 2759 ft | 193 kts | 241° |
| 2026-05-06 02:58 | 32.59333 | -96.94456 | 2751 ft | 196 kts | 281° |
| 2026-05-06 02:58 | 32.59973 | -96.95881 | 2763 ft | 194 kts | 304° |
| 2026-05-06 02:58 | 32.60821 | -96.97170 | 2543 ft | 197 kts | 312° |
| 2026-05-06 02:58 | 32.61011 | -96.97411 | 2442 ft | 197 kts | 317° |
| 2026-05-06 03:00 | 32.61397 | -96.97820 | 2318 ft | 191 kts | 316° |
| 2026-05-06 03:00 | 32.62056 | -96.99114 | 2038 ft | 182 kts | 297° |
| 2026-05-06 03:00 | 32.62536 | -97.00461 | 1928 ft | 166 kts | 296° |
| 2026-05-06 03:00 | 32.62948 | -97.01675 | 1905 ft | 156 kts | 298° |
| 2026-05-06 03:01 | 32.63401 | -97.02857 | 1851 ft | 157 kts | 299° |
| 2026-05-06 03:01 | 32.64070 | -97.03801 | 1830 ft | 148 kts | 338° |
| 2026-05-06 03:01 | 32.65051 | -97.03771 | 1854 ft | 150 kts | 29° |
| 2026-05-06 03:01 | 32.65599 | -97.02783 | 1853 ft | 150 kts | 80° |
| 2026-05-06 03:02 | 32.65469 | -97.01579 | 1853 ft | 139 kts | 99° |
| 2026-05-06 03:02 | 32.64942 | -97.00664 | 1882 ft | 135 kts | 144° |
| 2026-05-06 03:02 | 32.64040 | -97.00544 | 1756 ft | 138 kts | 200° |
| 2026-05-06 03:02 | 32.63411 | -97.01352 | 1588 ft | 133 kts | 253° |
| 2026-05-06 03:03 | 32.63288 | -97.02377 | 1532 ft | 125 kts | 279° |
| 2026-05-06 03:03 | 32.63408 | -97.03388 | 1621 ft | 125 kts | 289° |
| 2026-05-06 03:03 | 32.63753 | -97.04304 | 1696 ft | 116 kts | 315° |
| 2026-05-06 03:03 | 32.64390 | -97.04894 | 1747 ft | 119 kts | 337° |
| 2026-05-06 03:04 | 32.65155 | -97.05217 | 1845 ft | 119 kts | 348° |
| 2026-05-06 03:04 | 32.65682 | -97.05376 | 1891 ft | 116 kts | 348° |
| 2026-05-06 03:04 | 32.66489 | -97.05486 | 1974 ft | 114 kts | 2° |
| 2026-05-06 03:04 | 32.67570 | -97.05558 | 2111 ft | 117 kts | 358° |
| 2026-05-06 03:05 | 32.68155 | -97.05617 | 2202 ft | 138 kts | 357° |
| 2026-05-06 03:05 | 32.69222 | -97.05693 | 2415 ft | 162 kts | 357° |
| 2026-05-06 03:05 | 32.70285 | -97.05741 | 2511 ft | 151 kts | 3° |
| 2026-05-06 03:05 | 32.71334 | -97.05581 | 2497 ft | 154 kts | 13° |
| 2026-05-06 03:06 | 32.72405 | -97.05474 | 2494 ft | 152 kts | 358° |
| 2026-05-06 03:06 | 32.73468 | -97.05574 | 2435 ft | 151 kts | 358° |
| 2026-05-06 03:06 | 32.74440 | -97.05634 | 2341 ft | 128 kts | 360° |
| 2026-05-06 03:06 | 32.75284 | -97.05646 | 2126 ft | 121 kts | 0° |
| 2026-05-06 03:07 | 32.76103 | -97.05605 | 2017 ft | 114 kts | 4° |
| 2026-05-06 03:07 | 32.76870 | -97.05568 | 1855 ft | 111 kts | 3° |
| 2026-05-06 03:07 | 32.77794 | -97.05546 | 1872 ft | 147 kts | 1° |
| 2026-05-06 03:07 | 32.78793 | -97.05552 | 1882 ft | 139 kts | 1° |
| 2026-05-06 03:08 | 32.79764 | -97.05558 | 1841 ft | 137 kts | 1° |
| 2026-05-06 03:08 | 32.80706 | -97.05531 | 1688 ft | 133 kts | 1° |
| 2026-05-06 03:08 | 32.81642 | -97.05517 | 1612 ft | 140 kts | 0° |
| 2026-05-06 03:08 | 32.82612 | -97.05539 | 1589 ft | 135 kts | 0° |
| 2026-05-06 03:09 | 32.83532 | -97.05538 | 1477 ft | 139 kts | 2° |
| 2026-05-06 03:09 | 32.84509 | -97.05514 | 1307 ft | 140 kts | 2° |
| 2026-05-06 03:09 | 32.85491 | -97.05492 | 1122 ft | 139 kts | 3° |
| 2026-05-06 03:09 | 32.86463 | -97.05499 | 1009 ft | 139 kts | 359° |
| 2026-05-06 03:10 | 32.87411 | -97.05500 | 728 ft | 133 kts | 0° |
| 2026-05-06 03:10 | 32.88322 | -97.05491 | 637 ft | 123 kts | 1° |
| 2026-05-06 03:10 | 32.89045 | -97.05474 | 597 ft | 76 kts | 360° |
| 2026-05-06 03:10 | 32.89345 | -97.05477 | 602 ft | 22 kts | 2° |
| 2026-05-06 03:11 | 32.89507 | -97.05472 | 612 ft | 28 kts | 0° |
| 2026-05-06 03:11 | 32.89729 | -97.05469 | 609 ft | 30 kts | 3° |
| 2026-05-06 03:11 | 32.89842 | -97.05439 | 611 ft | 12 kts | 25° |
| 2026-05-06 03:11 | 32.89936 | -97.05405 | 619 ft | 18 kts | 12° |
| 2026-05-06 03:12 | 32.90031 | -97.05337 | 609 ft | 17 kts | 39° |
| 2026-05-06 03:12 | 32.90113 | -97.05260 | 601 ft | 10 kts | 73° |
| 2026-05-06 03:12 | 32.90116 | -97.05148 | 599 ft | 17 kts | 90° |
| 2026-05-06 03:12 | 32.90120 | -97.04981 | 598 ft | 23 kts | 98° |
| 2026-05-06 03:13 | 32.90127 | -97.04766 | 597 ft | 28 kts | 76° |
| 2026-05-06 03:13 | 32.90139 | -97.04519 | 596 ft | 29 kts | 89° |
| 2026-05-06 03:13 | 32.90133 | -97.04314 | 596 ft | 16 kts | 95° |
| 2026-05-06 03:13 | 32.90127 | -97.04226 | 596 ft | 0 kts | 90° |